• Join FlightAware (Why Join?)
  • Login
  • US Flag 
02:52PM EDT


 

Airport Tracker/Info


-or-


 

Live Flight TrackerFlight Track Log ✈ AJT744 ✈ 28-Jun-2013 ✈ MMMD / MID - KMIA

Flight Track Log - Related Links

Times and Time Zones

All times are in EDT time to prevent confusion due to time zone crossing. See the AJT744 flight status page for this flight to view local times or setup timezone preferences in your user account.

Time Position Orientation Groundspeed Altitude Reporting Facility
EDT Latitude Longitude Course Direction KTS MPH feet Rate Location/Type
11:14AM 23.1458 -84.0033 57° Northeast 467 537 37,000  Level Miami Center
11:15AM 23.2183 -83.8833 57° Northeast 467 537 37,000  Level Miami Center
11:16AM 23.2886 -83.7631 58° Northeast 467 537 37,000  Level Miami Center
11:17AM 23.3589 -83.6425 58° Northeast 467 537 37,000  Level Miami Center
11:18AM 23.4308 -83.5219 57° Northeast 467 537 37,000  Level Miami Center
11:19AM 23.5031 -83.3992 57° Northeast 467 537 37,000  Level Miami Center
11:20AM 23.5708 -83.2781 59° Northeast 467 537 37,000  Level Miami Center
11:21AM 23.6389 -83.1547 59° Northeast 467 537 37,000  Level Miami Center
11:22AM 23.7106 -83.0314 58° Northeast 472 543 37,000  Level Miami Center
11:23AM 23.7764 -82.9075 60° Northeast 472 543 37,000  Level Miami Center
11:24AM 23.8497 -82.7908 55° Northeast 467 537 37,000  Level Miami Center
11:25AM 23.9192 -82.6692 58° Northeast 467 537 37,000  Level Miami Center
11:26AM 23.9889 -82.5453 58° Northeast 467 537 37,000  Level Miami Center
11:27AM 24.0683 -82.4306 53° Northeast 467 537 37,000  Level Miami Center
11:28AM 24.1431 -82.3269 52° Northeast 472 543 37,000  Level Miami Center
11:29AM 24.2344 -82.2217 46° Northeast 472 543 37,000  Level Miami Center
11:30AM 24.3278 -82.1256 43° Northeast 472 543 37,000 -600 Level Miami Center
11:31AM 24.4272 -82.0294 41° Northeast 466 536 35,900 -2,100 Descending Miami Center
11:32AM 24.5267 -81.9308 42° Northeast 466 536 32,900 -2,820 Descending Miami Center
11:33AM 24.6236 -81.8411 40° Northeast 466 536 30,300 -2,280 Descending Miami Center
11:34AM 24.7250 -81.7422 42° Northeast 466 536 28,400 -2,100 Descending Miami Center
11:35AM 24.8094 -81.6519 44° Northeast 448 516 26,200 -2,160 Descending Miami Center
11:36AM 24.9058 -81.5800 34° Northeast 430 495 24,100 -2,100 Descending Miami Center
11:37AM 24.9997 -81.5125 33° Northeast 409 471 22,000 -2,100 Descending Miami Center
11:38AM 25.0917 -81.4450 34° Northeast 399 459 20,000 -1,860 Descending Miami Center
11:39AM 25.1792 -81.3817 33° Northeast 389 448 18,300 -1,680 Descending Miami Center
11:40AM 25.2625 -81.3250 32° Northeast 368 423 16,700 -1,740 Descending Miami Center
11:41AM 25.3417 -81.2636 35° Northeast 353 406 14,900 -1,800 Descending Miami Center
11:42AM 25.4022 -81.1878 49° Northeast 332 382 13,200 -1,620 Descending Miami Center
11:43AM 25.4669 -81.1211 43° Northeast 320 368 11,700 -1,200 Descending Miami Center
11:44AM 25.4942 -81.0436 69° East 272 313 10,900 -780 Descending Miami Center
11:45AM 25.5039 -80.9958 77° East 240 276 10,500 -480 Descending Miami Center
11:46AM 25.5275 -80.9781 34° Northeast 220 253 10,400 -360 Descending Miami Center
11:47AM 25.5950 -80.9506 20° North 238 274 10,000 -240 Descending Miami Center
11:47AM 25.6278 -80.8986 55° Northeast 224 258 10,000 -300 Level Miami Center
11:48AM 25.6169 -80.8314 100° East 200 230 9,500 -900 Descending Miami Center
11:49AM 25.5856 -80.7636 117° Southeast 205 236 8,200 -1,020 Descending Miami Center
11:50AM 25.5644 -80.6917 108° East 215 247 7,500 -600 Descending Miami Center
11:51AM 25.5703 -80.6294 84° East 215 247 7,100 -480 Descending Miami Center
11:52AM 25.6072 -80.5639 58° Northeast 220 253 6,600 -840 Descending Miami Center
11:53AM 25.6531 -80.5769 346° North 196 226 5,500 -780 Descending Miami Center
11:54AM 25.6531 -80.6528 270° West 198 228 5,100 -720 Descending Miami Center
11:56AM 25.7064 -80.6914 327° Northwest 229 264 3,800 -840 Descending Miami Center
11:57AM 25.7658 -80.6564 28° Northeast 228 262 3,100 -420 Descending Miami Center
11:58AM 25.7717 -80.5944 84° East 225 259 3,100  Level Miami Center
11:59AM 25.7731 -80.5344 89° East 187 215 3,100 -180 Level Miami Center
12:00PM 25.7767 -80.4769 86° East 186 214 2,800 -600 Descending Miami Center
12:01PM 25.7800 -80.4192 86° East 180 207 1,900 -960 Descending Miami Center
12:02PM 25.7794 -80.3639 91° East 170 196 900 -840 Descending Miami Center
12:03PM 25.7847 -80.3156 83° East 147 169 100 -720 Descending Miami Center
12:05PM 25.7833 -80.2833 67° East  Level FlightAware Approximate